Time;durP1;ratioP1;P1;durP2;ratioP2;P2;SDS_P1;SDS_P2;PMS_P1;PMS_P2;Temp;Humidity;BMP_temperature;BMP_pressure;BME280_temperature;BME280_humidity;BME280_pressure;Samples;Min_cycle;Max_cycle;Signal;HPM_P1;HPM_P2
2022/09/25 00:01:13;;;;;;;;;;;;;;;16.69;56.02;101257.88;5016298;28;1202;-50
2022/09/25 00:03:39;;;;;;;;;;;;;;;17.60;53.43;101244.16;5015264;28;1017;-46
2022/09/25 00:06:08;;;;;;;;;;;;;;;16.79;55.44;101257.13;5016122;28;1397;-48
2022/09/25 00:08:34;;;;;;;;;;;;;;;16.55;55.78;101257.50;5016475;28;981;-48
2022/09/25 00:10:59;;;;;;;;;;;;;;;16.32;56.29;101252.34;5015952;28;1148;-47
2022/09/25 00:13:25;;;;;;;;;;;;;;;17.26;54.89;101247.28;4997914;28;1902;-50
2022/09/25 00:15:51;;;;;;;;;;;;;;;17.24;54.45;101238.50;5016006;28;1159;-47
2022/09/25 00:19:48;;;;;;;;;;;;;;;16.69;55.93;101235.06;5016252;28;1238;-46
2022/09/25 00:21:03;;;;;;;;;;;;;;;16.42;56.03;101230.47;5016040;28;1096;-47
2022/09/25 00:23:28;;;;;;;;;;;;;;;16.57;56.10;101227.84;5003251;28;1219;-49
2022/09/25 00:25:55;;;;;;;;;;;;;;;17.54;53.84;101232.28;5016130;28;1188;-47
2022/09/25 00:28:20;;;;;;;;;;;;;;;16.74;55.77;101224.94;5015123;28;1171;-46
2022/09/25 00:30:46;;;;;;;;;;;;;;;16.48;55.84;101228.59;5015870;28;1108;-47
2022/09/25 00:33:11;;;;;;;;;;;;;;;16.32;56.01;101231.19;5015947;28;1973;-50
2022/09/25 00:35:37;;;;;;;;;;;;;;;16.70;56.01;101223.81;5016025;28;1096;-45
2022/09/25 00:38:02;;;;;;;;;;;;;;;17.40;54.15;101228.38;5016157;28;1156;-50
2022/09/25 00:40:27;;;;;;;;;;;;;;;16.70;55.95;101223.00;5016186;28;1065;-50
2022/09/25 00:42:53;;;;;;;;;;;;;;;16.42;56.38;101225.81;5016036;28;1179;-46
2022/09/25 00:45:19;;;;;;;;;;;;;;;16.31;56.01;101210.31;5016251;28;1206;-48
2022/09/25 00:47:50;;;;;;;;;;;;;;;17.70;53.73;101208.44;5016040;28;1116;-45
2022/09/25 00:50:18;;;;;;;;;;;;;;;16.99;55.22;101200.69;5015668;28;1191;-49
2022/09/25 00:52:43;;;;;;;;;;;;;;;16.56;56.06;101192.41;4998177;28;1909;-48
2022/09/25 00:55:11;;;;;;;;;;;;;;;16.35;56.15;101192.25;4998283;28;1148;-48
2022/09/25 00:57:37;;;;;;;;;;;;;;;16.97;55.63;101192.72;4998256;28;1226;-44
2022/09/25 01:00:09;;;;;;;;;;;;;;;17.37;54.16;101185.75;4998596;28;1108;-48
2022/09/25 01:02:45;;;;;;;;;;;;;;;16.70;55.78;101195.53;5015719;28;1340;-50
2022/09/25 01:05:15;;;;;;;;;;;;;;;16.41;56.08;101193.13;4992111;28;883;-46
2022/09/25 01:07:41;;;;;;;;;;;;;;;16.39;56.46;101189.81;5015632;28;1230;-49
2022/09/25 01:10:07;;;;;;;;;;;;;;;17.78;53.29;101191.41;4997824;28;1202;-46
2022/09/25 01:12:34;;;;;;;;;;;;;;;16.89;55.34;101193.22;4998173;28;1310;-49
2022/09/25 01:14:59;;;;;;;;;;;;;;;16.57;55.85;101196.81;4997998;28;1984;-46
2022/09/25 01:17:49;;;;;;;;;;;;;;;16.36;56.27;101193.91;5018787;28;982;-47
2022/09/25 01:20:26;;;;;;;;;;;;;;;17.40;54.44;101189.91;4997360;28;1396;-48
2022/09/25 01:23:21;;;;;;;;;;;;;;;16.98;55.35;101182.56;5001679;28;1203;-46
2022/09/25 01:25:59;;;;;;;;;;;;;;;16.47;56.33;101175.59;4929883;28;1213;-46
2022/09/25 01:29:00;;;;;;;;;;;;;;;16.34;56.27;101182.38;5004770;28;1231;-48
2022/09/25 01:31:32;;;;;;;;;;;;;;;17.08;55.24;101177.94;4977515;28;1207;-46
2022/09/25 01:33:59;;;;;;;;;;;;;;;17.28;54.45;101176.41;5007638;28;1918;-45
2022/09/25 01:36:28;;;;;;;;;;;;;;;16.70;55.89;101174.38;5017172;28;1200;-47
2022/09/25 01:38:58;;;;;;;;;;;;;;;16.43;56.07;101171.75;5017655;28;1176;-48
2022/09/25 01:41:44;;;;;;;;;;;;;;;16.25;56.38;101171.03;5017495;28;846;-50
2022/09/25 01:44:14;;;;;;;;;;;;;;;17.37;54.51;101169.25;5018609;28;1242;-48
2022/09/25 01:46:41;;;;;;;;;;;;;;;17.27;54.51;101180.22;5017172;28;1136;-45
2022/09/25 01:49:26;;;;;;;;;;;;;;;16.68;56.09;101184.00;5017424;28;1132;-48
2022/09/25 01:51:52;;;;;;;;;;;;;;;16.45;56.16;101179.69;5016824;28;1176;-49
2022/09/25 01:54:20;;;;;;;;;;;;;;;17.07;55.30;101176.28;5018619;28;1918;-47
2022/09/25 01:56:49;;;;;;;;;;;;;;;17.23;54.62;101170.88;5018167;28;1140;-50
2022/09/25 01:59:21;;;;;;;;;;;;;;;16.68;55.80;101173.84;5017161;28;1144;-49
2022/09/25 02:01:47;;;;;;;;;;;;;;;16.42;56.37;101161.84;5017045;28;1317;-46
2022/09/25 02:04:17;;;;;;;;;;;;;;;16.29;56.02;101152.13;5018183;28;1156;-48
2022/09/25 02:06:43;;;;;;;;;;;;;;;17.51;54.28;101155.84;5017342;28;1243;-45
2022/09/25 02:09:12;;;;;;;;;;;;;;;17.15;54.80;101163.13;5017468;28;1093;-44
2022/09/25 02:11:42;;;;;;;;;;;;;;;16.64;55.76;101161.72;5016642;28;1175;-49
2022/09/25 02:14:10;;;;;;;;;;;;;;;16.43;55.96;101164.31;5016603;28;1902;-48
2022/09/25 02:16:42;;;;;;;;;;;;;;;16.29;56.04;101163.13;5016354;28;1175;-50
2022/09/25 02:22:02;;;;;;;;;;;;;;;16.95;55.38;101161.94;5016858;28;1212;-46
2022/09/25 02:24:33;;;;;;;;;;;;;;;16.59;56.03;101159.78;5016901;28;1214;-49
2022/09/25 02:26:59;;;;;;;;;;;;;;;16.39;56.26;101167.88;5016983;28;1140;-47
2022/09/25 02:29:24;;;;;;;;;;;;;;;16.30;56.11;101164.78;5016137;28;1253;-50
2022/09/25 02:32:03;;;;;;;;;;;;;;;17.71;53.61;101160.59;5016343;28;1208;-48
2022/09/25 02:34:28;;;;;;;;;;;;;;;16.81;55.52;101163.47;5016954;28;1967;-44
2022/09/25 02:36:54;;;;;;;;;;;;;;;16.55;56.14;101166.03;5017802;28;1144;-49
2022/09/25 02:39:20;;;;;;;;;;;;;;;16.33;56.04;101156.03;5018092;28;1171;-44
2022/09/25 02:42:06;;;;;;;;;;;;;;;17.60;54.17;101162.47;5015914;28;1155;-46
2022/09/25 02:44:51;;;;;;;;;;;;;;;16.95;55.56;101174.84;5013788;28;1275;-47
2022/09/25 02:47:21;;;;;;;;;;;;;;;16.58;55.91;101173.78;5017076;28;1024;-48
2022/09/25 02:50:09;;;;;;;;;;;;;;;16.33;56.10;101175.22;5015761;28;1199;-49
2022/09/25 02:52:58;;;;;;;;;;;;;;;16.95;55.63;101181.16;5017680;28;1233;-46
2022/09/25 02:55:35;;;;;;;;;;;;;;;17.30;54.43;101185.19;5011824;28;1223;-49
2022/09/25 02:58:27;;;;;;;;;;;;;;;16.71;55.58;101184.28;5015548;28;1136;-50
2022/09/25 03:00:53;;;;;;;;;;;;;;;16.42;56.02;101190.13;4990445;28;1354;-46
2022/09/25 03:03:19;;;;;;;;;;;;;;;16.30;56.16;101184.00;5015813;28;1164;-48
2022/09/25 03:05:45;;;;;;;;;;;;;;;16.58;56.11;101195.75;5015840;28;1116;-50
2022/09/25 03:10:55;;;;;;;;;;;;;;;16.73;55.81;101187.59;5016923;28;1195;-49
2022/09/25 03:13:26;;;;;;;;;;;;;;;16.47;56.27;101183.03;5015611;28;1969;-45
2022/09/25 03:15:54;;;;;;;;;;;;;;;16.34;56.02;101185.13;5017212;28;1152;-47
2022/09/25 03:18:20;;;;;;;;;;;;;;;17.22;55.28;101181.03;5014590;28;1164;-50
2022/09/25 03:20:46;;;;;;;;;;;;;;;17.33;54.21;101184.63;5017283;28;1215;-50
2022/09/25 03:23:11;;;;;;;;;;;;;;;16.67;56.09;101188.66;5016936;28;1151;-47
2022/09/25 03:25:37;;;;;;;;;;;;;;;16.45;56.30;101186.00;5016647;28;1088;-49
2022/09/25 03:28:03;;;;;;;;;;;;;;;16.32;56.22;101181.81;5016828;28;1164;-48
2022/09/25 03:30:29;;;;;;;;;;;;;;;17.77;53.87;101192.50;5016685;28;1234;-45
2022/09/25 03:32:54;;;;;;;;;;;;;;;17.00;55.23;101181.19;5016734;28;1917;-49
2022/09/25 03:35:20;;;;;;;;;;;;;;;16.60;56.29;101185.31;5016716;28;1215;-47
2022/09/25 03:37:45;;;;;;;;;;;;;;;16.40;56.08;101173.09;5016822;28;1230;-50
2022/09/25 03:40:11;;;;;;;;;;;;;;;16.97;55.75;101169.91;5016195;28;1159;-47
2022/09/25 03:42:37;;;;;;;;;;;;;;;17.28;54.69;101179.13;5016119;28;957;-49
2022/09/25 03:45:02;;;;;;;;;;;;;;;16.69;56.08;101175.50;5016874;28;1160;-49
2022/09/25 03:47:28;;;;;;;;;;;;;;;16.42;56.15;101170.91;5016472;28;1172;-50
2022/09/25 03:49:53;;;;;;;;;;;;;;;16.54;56.55;101172.66;5016530;28;1222;-49
2022/09/25 03:52:20;;;;;;;;;;;;;;;17.75;53.57;101169.94;5016273;28;1187;-47
2022/09/25 03:54:46;;;;;;;;;;;;;;;16.81;55.81;101177.22;5015676;28;1981;-48
2022/09/25 03:57:13;;;;;;;;;;;;;;;16.48;56.15;101180.03;5016255;28;1108;-49
2022/09/25 03:59:39;;;;;;;;;;;;;;;16.36;56.19;101174.69;5016727;28;1131;-49
2022/09/25 04:02:04;;;;;;;;;;;;;;;16.18;56.37;101172.34;5016524;28;1179;-48
2022/09/25 04:04:31;;;;;;;;;;;;;;;17.43;54.63;101181.94;5016328;28;1226;-47
2022/09/25 04:06:56;;;;;;;;;;;;;;;16.97;55.47;101191.88;5015755;28;1100;-50
2022/09/25 04:09:22;;;;;;;;;;;;;;;16.49;56.39;101198.13;5016861;28;1191;-46
2022/09/25 04:11:47;;;;;;;;;;;;;;;16.33;56.35;101199.09;5015848;28;1109;-48
2022/09/25 04:14:13;;;;;;;;;;;;;;;16.15;56.29;101214.84;5016500;28;1977;-49
2022/09/25 04:16:39;;;;;;;;;;;;;;;17.24;54.77;101209.06;5016754;28;1136;-48
2022/09/25 04:19:05;;;;;;;;;;;;;;;17.19;54.56;101206.28;5015843;28;925;-49
2022/09/25 04:21:31;;;;;;;;;;;;;;;16.60;56.00;101201.78;5016163;28;1156;-46
2022/09/25 04:26:40;;;;;;;;;;;;;;;16.20;56.06;101201.19;5016175;28;1108;-46
2022/09/25 04:29:06;;;;;;;;;;;;;;;17.21;54.90;101203.31;5015853;28;1238;-48
2022/09/25 04:31:31;;;;;;;;;;;;;;;17.03;54.84;101201.81;5016252;28;1105;-51
2022/09/25 04:33:57;;;;;;;;;;;;;;;16.55;55.90;101202.56;5015799;28;1910;-50
2022/09/25 04:36:22;;;;;;;;;;;;;;;16.34;56.01;101218.06;5016303;28;1155;-47
2022/09/25 04:38:48;;;;;;;;;;;;;;;16.27;56.15;101211.97;5016777;28;1195;-50
2022/09/25 04:41:18;;;;;;;;;;;;;;;17.68;53.30;101207.03;5015552;28;1179;-48
2022/09/25 04:43:44;;;;;;;;;;;;;;;16.81;55.38;101215.66;5016260;28;1160;-46
2022/09/25 04:46:10;;;;;;;;;;;;;;;16.47;55.87;101211.28;5016011;28;1159;-51
2022/09/25 04:48:35;;;;;;;;;;;;;;;16.28;55.95;101199.88;5015853;28;1223;-49
2022/09/25 04:51:01;;;;;;;;;;;;;;;16.85;55.52;101209.38;5018703;28;1159;-51
2022/09/25 04:53:27;;;;;;;;;;;;;;;17.24;54.09;101200.81;5019566;28;1989;-49
2022/09/25 04:55:54;;;;;;;;;;;;;;;16.64;55.75;101208.41;5019473;28;1223;-50
2022/09/25 04:58:19;;;;;;;;;;;;;;;16.41;55.97;101217.81;5019872;28;1159;-46
2022/09/25 05:00:44;;;;;;;;;;;;;;;16.24;55.83;101212.47;5019716;28;1149;-48
2022/09/25 05:03:10;;;;;;;;;;;;;;;17.62;53.43;101209.75;5019389;28;1132;-49
2022/09/25 05:05:35;;;;;;;;;;;;;;;16.89;54.95;101206.97;5019210;28;1151;-51
2022/09/25 05:08:01;;;;;;;;;;;;;;;16.51;55.72;101211.59;5019566;28;1120;-49
2022/09/25 05:10:27;;;;;;;;;;;;;;;16.37;55.61;101214.78;5019111;28;1152;-50
2022/09/25 05:12:53;;;;;;;;;;;;;;;17.45;53.70;101218.22;5019092;28;1890;-47
2022/09/25 05:15:19;;;;;;;;;;;;;;;17.01;54.50;101210.34;5019234;28;1207;-48
2022/09/25 05:17:44;;;;;;;;;;;;;;;16.58;55.40;101203.97;5018770;28;1246;-50
2022/09/25 05:20:10;;;;;;;;;;;;;;;16.36;55.96;101213.13;5019572;28;1223;-47
2022/09/25 05:22:35;;;;;;;;;;;;;;;16.21;56.07;101208.31;5019240;28;1159;-50
2022/09/25 05:25:01;;;;;;;;;;;;;;;16.72;55.58;101212.59;5019157;28;1164;-47
2022/09/25 05:27:26;;;;;;;;;;;;;;;17.82;52.65;101207.34;5019090;28;1258;-51
2022/09/25 05:29:52;;;;;;;;;;;;;;;16.87;54.79;101209.94;5018840;28;1164;-48
2022/09/25 05:32:18;;;;;;;;;;;;;;;16.53;55.43;101206.66;5018523;28;1164;-49
2022/09/25 05:34:43;;;;;;;;;;;;;;;16.36;55.60;101210.38;5019164;28;1914;-50
2022/09/25 05:37:09;;;;;;;;;;;;;;;16.21;56.00;101202.81;5018929;28;1167;-49
2022/09/25 05:39:34;;;;;;;;;;;;;;;17.19;54.73;101210.97;5019052;28;1151;-46
2022/09/25 05:42:01;;;;;;;;;;;;;;;16.84;54.25;101209.63;5001566;28;1351;-51
2022/09/25 05:44:27;;;;;;;;;;;;;;;18.08;52.64;101211.84;5018804;28;1210;-50
2022/09/25 05:46:55;;;;;;;;;;;;;;;18.19;51.65;101209.09;5018467;28;1199;-48
2022/09/25 05:49:21;;;;;;;;;;;;;;;14.84;59.31;101222.81;5018849;28;1159;-48
2022/09/25 05:51:47;;;;;;;;;;;;;;;16.81;54.89;101218.41;5018668;28;1179;-51
2022/09/25 05:54:12;;;;;;;;;;;;;;;17.04;53.97;101215.28;5017607;28;1898;-50
2022/09/25 05:56:38;;;;;;;;;;;;;;;16.64;52.41;101211.16;5000902;28;1247;-49
2022/09/25 05:59:03;;;;;;;;;;;;;;;17.01;53.15;101221.31;5018878;28;1215;-51
2022/09/25 06:01:28;;;;;;;;;;;;;;;17.18;53.16;101220.28;5017707;28;1132;-47
2022/09/25 06:03:54;;;;;;;;;;;;;;;16.73;51.87;101226.06;5018680;28;1215;-48
2022/09/25 06:06:20;;;;;;;;;;;;;;;17.60;52.89;101222.16;5018408;28;1243;-47
2022/09/25 06:08:46;;;;;;;;;;;;;;;17.34;52.54;101224.78;5018334;28;1235;-48
2022/09/25 06:11:11;;;;;;;;;;;;;;;16.90;51.26;101214.09;5016737;28;1132;-48
2022/09/25 06:13:36;;;;;;;;;;;;;;;18.11;52.04;101227.78;5017603;28;1901;-50
2022/09/25 06:16:02;;;;;;;;;;;;;;;17.22;52.10;101222.25;5017361;28;1246;-50
2022/09/25 06:18:28;;;;;;;;;;;;;;;16.94;50.54;101217.97;5017870;28;1136;-51
2022/09/25 06:21:03;;;;;;;;;;;;;;;18.06;51.78;101219.56;5000956;28;1151;-46
2022/09/25 06:23:29;;;;;;;;;;;;;;;17.22;51.66;101221.41;5017549;28;1235;-43
2022/09/25 06:25:58;;;;;;;;;;;;;;;17.47;52.13;101219.91;5017717;28;1135;-47
2022/09/25 06:28:23;;;;;;;;;;;;;;;17.70;51.87;101218.63;5017855;28;1105;-50
2022/09/25 06:30:49;;;;;;;;;;;;;;;17.18;51.02;101220.28;5016954;28;1105;-48
2022/09/25 06:33:14;;;;;;;;;;;;;;;16.97;50.35;101211.13;5017776;28;1973;-46
2022/09/25 06:35:44;;;;;;;;;;;;;;;17.95;51.28;101207.69;5017512;28;1160;-45
2022/09/25 06:38:09;;;;;;;;;;;;;;;17.18;51.13;101209.31;5017633;28;1199;-47
2022/09/25 06:40:36;;;;;;;;;;;;;;;17.26;50.77;101212.41;5017813;28;1159;-46
2022/09/25 06:43:02;;;;;;;;;;;;;;;17.71;51.42;101220.25;5017473;28;1243;-48
2022/09/25 06:45:29;;;;;;;;;;;;;;;17.23;50.70;101214.84;5017113;28;1211;-45
2022/09/25 06:47:59;;;;;;;;;;;;;;;17.81;51.45;101212.03;5017843;28;1116;-47
2022/09/25 06:50:30;;;;;;;;;;;;;;;17.64;51.22;101215.00;5006570;28;1179;-47
2022/09/25 06:52:58;;;;;;;;;;;;;;;17.24;50.39;101222.81;5014953;28;1898;-46
2022/09/25 06:55:24;;;;;;;;;;;;;;;17.03;49.44;101215.56;5017166;28;1195;-47
2022/09/25 06:57:49;;;;;;;;;;;;;;;17.68;50.45;101218.84;5017251;28;985;-47
2022/09/25 07:00:15;;;;;;;;;;;;;;;17.62;50.78;101223.50;5016896;28;1203;-43
2022/09/25 07:05:24;;;;;;;;;;;;;;;17.04;49.08;101229.03;5017453;28;1266;-47
2022/09/25 07:07:50;;;;;;;;;;;;;;;17.83;50.36;101217.28;5016682;28;1172;-49
2022/09/25 07:10:15;;;;;;;;;;;;;;;17.28;50.03;101215.69;5016927;28;1238;-47
2022/09/25 07:12:41;;;;;;;;;;;;;;;16.98;49.58;101221.03;5016781;28;1183;-47
2022/09/25 07:15:07;;;;;;;;;;;;;;;17.49;49.76;101209.44;5016358;28;1910;-48
2022/09/25 07:17:32;;;;;;;;;;;;;;;17.69;50.09;101216.94;5017406;28;1152;-47
2022/09/25 07:19:57;;;;;;;;;;;;;;;17.22;49.77;101221.41;5016801;28;1192;-49
2022/09/25 07:22:23;;;;;;;;;;;;;;;17.98;49.97;101228.34;5009487;28;1152;-48
2022/09/25 07:24:48;;;;;;;;;;;;;;;17.35;49.93;101215.44;5011945;28;1167;-49
2022/09/25 07:27:14;;;;;;;;;;;;;;;17.85;50.42;101223.31;5016516;28;1163;-48
2022/09/25 07:29:39;;;;;;;;;;;;;;;16.40;54.73;101216.19;5016959;28;1191;-46
2022/09/25 07:32:05;;;;;;;;;;;;;;;15.62;54.97;101208.25;5015995;28;1132;-47
2022/09/25 07:34:30;;;;;;;;;;;;;;;18.41;51.32;101222.59;5016899;28;1910;-50
2022/09/25 07:36:55;;;;;;;;;;;;;;;17.55;51.93;101216.63;5016193;28;1135;-46
2022/09/25 07:39:21;;;;;;;;;;;;;;;17.21;50.55;101204.13;5016179;28;1183;-49
2022/09/25 07:41:46;;;;;;;;;;;;;;;17.26;50.47;101217.03;5016581;28;1127;-51
2022/09/25 07:44:12;;;;;;;;;;;;;;;17.65;50.44;101211.16;5016445;28;896;-47
2022/09/25 07:46:42;;;;;;;;;;;;;;;17.23;50.07;101217.59;5015980;28;1180;-49
2022/09/25 07:49:07;;;;;;;;;;;;;;;17.01;49.22;101225.97;5016805;28;1381;-47
2022/09/25 07:51:33;;;;;;;;;;;;;;;18.02;49.92;101212.94;5016585;28;1200;-51
2022/09/25 07:53:58;;;;;;;;;;;;;;;17.34;50.34;101218.47;5015867;28;1914;-45
2022/09/25 07:56:23;;;;;;;;;;;;;;;17.08;49.37;101210.91;5015928;28;1195;-45
2022/09/25 07:58:51;;;;;;;;;;;;;;;17.58;49.96;101213.34;5015958;28;1239;-50
2022/09/25 08:01:16;;;;;;;;;;;;;;;17.60;50.22;101216.66;5015969;28;1195;-46
2022/09/25 08:03:42;;;;;;;;;;;;;;;17.22;49.79;101208.53;5016497;28;1227;-45
2022/09/25 08:06:09;;;;;;;;;;;;;;;17.21;49.30;101212.34;5016386;28;1104;-45
2022/09/25 08:08:34;;;;;;;;;;;;;;;17.88;50.08;101203.50;5015640;28;871;-49
2022/09/25 08:11:01;;;;;;;;;;;;;;;17.37;49.86;101201.44;5016628;28;1192;-50
2022/09/25 08:13:27;;;;;;;;;;;;;;;17.23;48.72;101195.59;5016200;28;1902;-48
2022/09/25 08:15:53;;;;;;;;;;;;;;;17.92;49.65;101191.72;5016087;28;1147;-50
2022/09/25 08:18:18;;;;;;;;;;;;;;;17.29;50.08;101197.25;5016000;28;1223;-48
2022/09/25 08:20:43;;;;;;;;;;;;;;;17.22;48.74;101189.28;5016202;28;926;-48
2022/09/25 08:23:09;;;;;;;;;;;;;;;18.09;49.59;101191.47;5003447;28;1172;-47
2022/09/25 08:25:34;;;;;;;;;;;;;;;17.40;49.82;101189.91;5018882;28;1191;-48
2022/09/25 08:28:00;;;;;;;;;;;;;;;17.22;49.06;101186.53;5020071;28;1242;-45
2022/09/25 08:30:25;;;;;;;;;;;;;;;17.86;49.12;101200.22;5020141;28;1219;-50
2022/09/25 08:32:51;;;;;;;;;;;;;;;17.55;49.58;101178.13;5020183;28;946;-46
2022/09/25 08:35:16;;;;;;;;;;;;;;;17.24;49.02;101178.84;5019989;28;1972;-45
2022/09/25 08:37:43;;;;;;;;;;;;;;;17.19;48.11;101178.00;5020040;28;1194;-50
2022/09/25 08:40:16;;;;;;;;;;;;;;;17.93;49.09;101182.34;5019955;28;1164;-44
2022/09/25 08:42:42;;;;;;;;;;;;;;;17.37;49.19;101180.25;5002737;28;1148;-50
2022/09/25 08:50:57;;;;;;;;;;;;;;;17.60;49.39;101170.72;4939852;29;1177;-47
2022/09/25 08:53:23;;;;;;;;;;;;;;;17.34;48.62;101178.06;4923970;29;1906;-46
2022/09/25 08:56:33;;;;;;;;;;;;;;;17.10;48.30;101163.94;4973434;28;1189;-49
2022/09/25 08:58:39;;;;;;;;;;;;;;;18.25;48.57;101166.72;4980449;28;1181;-47
2022/09/25 09:01:05;;;;;;;;;;;;;;;17.49;49.35;101165.44;5002652;28;1113;-51
2022/09/25 09:03:31;;;;;;;;;;;;;;;17.22;48.83;101158.22;5019435;28;1152;-48
2022/09/25 09:06:00;;;;;;;;;;;;;;;18.07;48.71;101168.91;5019288;28;1202;-49
2022/09/25 09:08:26;;;;;;;;;;;;;;;17.44;49.14;101158.03;5001874;28;1175;-49
2022/09/25 09:11:12;;;;;;;;;;;;;;;17.27;48.36;101161.00;5019301;28;1223;-48
2022/09/25 09:13:56;;;;;;;;;;;;;;;17.34;49.02;101153.31;4995336;28;1913;-50
2022/09/25 09:16:21;;;;;;;;;;;;;;;17.80;48.93;101149.88;5019304;28;1128;-48
2022/09/25 09:18:47;;;;;;;;;;;;;;;17.33;49.21;101150.84;5019484;28;1117;-50
2022/09/25 09:21:21;;;;;;;;;;;;;;;17.22;48.17;101144.47;5018514;28;910;-47
2022/09/25 09:23:49;;;;;;;;;;;;;;;17.17;47.70;101142.53;5000163;28;1101;-49
2022/09/25 09:26:18;;;;;;;;;;;;;;;17.93;48.68;101143.03;5019576;28;1183;-45
2022/09/25 09:28:53;;;;;;;;;;;;;;;17.22;49.39;101138.97;5011296;28;1272;-46
2022/09/25 09:31:18;;;;;;;;;;;;;;;17.22;48.26;101144.47;5018658;28;1198;-48
2022/09/25 09:33:44;;;;;;;;;;;;;;;18.40;48.09;101136.41;5019096;28;1972;-45
2022/09/25 09:36:28;;;;;;;;;;;;;;;14.37;57.87;101142.72;5017704;28;1199;-43
2022/09/25 09:38:57;;;;;;;;;;;;;;;18.24;50.12;101126.50;5019010;28;1159;-48
2022/09/25 09:41:36;;;;;;;;;;;;;;;15.42;57.11;101121.97;5018654;28;1155;-46
2022/09/25 09:44:01;;;;;;;;;;;;;;;16.03;53.14;101119.03;5018715;28;1115;-46
2022/09/25 09:46:37;;;;;;;;;;;;;;;17.58;51.51;101119.84;5018889;28;1170;-47
2022/09/25 09:49:11;;;;;;;;;;;;;;;17.10;51.01;101120.78;5019070;28;1184;-47
2022/09/25 09:51:45;;;;;;;;;;;;;;;17.02;50.84;101113.06;5018428;28;1186;-48
2022/09/25 09:54:13;;;;;;;;;;;;;;;17.63;50.45;101117.09;5018739;28;1910;-48
2022/09/25 09:56:39;;;;;;;;;;;;;;;17.30;50.10;101105.47;5017223;28;922;-46
2022/09/25 09:59:16;;;;;;;;;;;;;;;17.10;49.18;101107.06;5018526;28;1191;-48
2022/09/25 10:01:41;;;;;;;;;;;;;;;16.99;48.47;101113.59;5003759;28;1159;-49
2022/09/25 10:04:08;;;;;;;;;;;;;;;17.85;49.62;101107.78;5017187;28;1186;-47
2022/09/25 10:06:36;;;;;;;;;;;;;;;17.26;49.92;101096.13;5017155;28;1167;-45
2022/09/25 10:09:01;;;;;;;;;;;;;;;17.20;48.81;101094.47;5016697;28;915;-47
2022/09/25 10:11:27;;;;;;;;;;;;;;;18.05;49.49;101091.31;5016581;28;1239;-46
2022/09/25 10:13:52;;;;;;;;;;;;;;;17.36;49.69;101092.56;5018090;28;1913;-43
2022/09/25 10:16:19;;;;;;;;;;;;;;;17.48;49.61;101092.34;5018222;28;1104;-48
2022/09/25 10:18:52;;;;;;;;;;;;;;;17.74;50.03;101088.53;5018430;28;1214;-45
2022/09/25 10:21:18;;;;;;;;;;;;;;;17.37;49.37;101077.72;5017881;28;1095;-47
2022/09/25 10:23:47;;;;;;;;;;;;;;;17.42;49.56;101072.25;5017719;28;1277;-47
2022/09/25 10:26:21;;;;;;;;;;;;;;;17.65;49.85;101065.41;5017838;28;1170;-48
2022/09/25 10:28:47;;;;;;;;;;;;;;;17.41;49.11;101076.09;5017997;28;1504;-44
2022/09/25 10:31:12;;;;;;;;;;;;;;;17.24;48.84;101057.09;5018374;28;1117;-45
2022/09/25 10:33:37;;;;;;;;;;;;;;;17.20;48.24;101066.97;4999922;28;1993;-47
2022/09/25 10:36:03;;;;;;;;;;;;;;;18.23;48.91;101069.81;5000429;28;1215;-45
2022/09/25 10:38:46;;;;;;;;;;;;;;;17.57;49.75;101068.69;5017831;28;1164;-46
2022/09/25 10:41:12;;;;;;;;;;;;;;;17.27;49.17;101070.28;5000617;28;1503;-45
2022/09/25 10:43:51;;;;;;;;;;;;;;;17.20;48.55;101058.72;5016897;28;1152;-48
2022/09/25 10:50:09;;;;;;;;;;;;;;;17.31;48.65;101054.91;5017184;28;1009;-48
2022/09/25 10:52:18;;;;;;;;;;;;;;;17.31;48.74;101049.41;5008903;28;1497;-47
2022/09/25 10:54:43;;;;;;;;;;;;;;;17.19;48.31;101043.34;5017281;28;1918;-48
2022/09/25 10:57:16;;;;;;;;;;;;;;;17.04;48.13;101031.22;5017008;28;1243;-44
2022/09/25 10:59:47;;;;;;;;;;;;;;;17.05;47.39;101035.59;5017040;28;1227;-47
2022/09/25 11:02:13;;;;;;;;;;;;;;;18.12;48.62;101028.56;4999916;28;1164;-44
2022/09/25 11:04:38;;;;;;;;;;;;;;;17.43;49.27;101030.75;5016942;28;1247;-46
2022/09/25 11:07:05;;;;;;;;;;;;;;;17.17;48.68;101027.13;4999512;28;1407;-48
2022/09/25 11:09:31;;;;;;;;;;;;;;;17.70;48.81;101023.34;4999550;28;1171;-44
2022/09/25 11:12:05;;;;;;;;;;;;;;;17.48;49.42;101009.84;4999360;28;1199;-46
2022/09/25 11:14:31;;;;;;;;;;;;;;;17.58;49.33;101016.16;4999427;28;1918;-47
2022/09/25 11:16:57;;;;;;;;;;;;;;;16.95;52.64;101016.34;4983681;28;1144;-46
2022/09/25 11:19:29;;;;;;;;;;;;;;;15.90;54.24;101029.75;5016923;28;1171;-43
2022/09/25 11:21:59;;;;;;;;;;;;;;;18.38;50.60;101022.16;5016927;28;1222;-47
2022/09/25 11:24:39;;;;;;;;;;;;;;;14.67;59.68;101014.81;4999204;28;1168;-48
2022/09/25 11:27:11;;;;;;;;;;;;;;;16.62;53.32;101023.91;4999077;28;1474;-46
2022/09/25 11:29:55;;;;;;;;;;;;;;;17.78;51.98;101023.59;5017161;28;1227;-47
2022/09/25 11:32:39;;;;;;;;;;;;;;;17.30;50.97;101014.78;5016898;28;1116;-48
2022/09/25 11:35:23;;;;;;;;;;;;;;;17.19;49.71;101018.59;5016571;28;1983;-47
2022/09/25 11:38:07;;;;;;;;;;;;;;;16.93;49.22;101016.63;5016840;28;1172;-49
2022/09/25 11:43:34;;;;;;;;;;;;;;;17.35;50.12;101001.03;5016184;28;1120;-48
2022/09/25 11:46:01;;;;;;;;;;;;;;;17.21;48.94;100999.94;4992649;28;868;-47
2022/09/25 11:48:26;;;;;;;;;;;;;;;17.06;48.63;100998.78;4998893;28;1140;-45
2022/09/25 11:51:01;;;;;;;;;;;;;;;17.01;48.23;100998.78;5016312;28;1238;-48
2022/09/25 11:53:32;;;;;;;;;;;;;;;17.87;49.18;100992.78;5016380;28;1894;-48
2022/09/25 11:56:13;;;;;;;;;;;;;;;17.29;49.10;100996.63;5016484;28;1199;-46
2022/09/25 11:59:04;;;;;;;;;;;;;;;17.43;49.35;100991.41;5015722;28;994;-48
2022/09/25 12:01:49;;;;;;;;;;;;;;;17.85;49.37;100997.75;4999216;28;1249;-47
2022/09/25 12:04:15;;;;;;;;;;;;;;;17.38;49.13;100989.50;5016286;28;1180;-47
2022/09/25 12:07:02;;;;;;;;;;;;;;;17.21;48.45;100989.75;5016389;28;1159;-47
2022/09/25 12:09:36;;;;;;;;;;;;;;;17.87;49.51;100995.56;4998945;28;1151;-48
2022/09/25 12:12:11;;;;;;;;;;;;;;;17.37;49.27;100981.53;5015952;28;1159;-46
2022/09/25 12:14:37;;;;;;;;;;;;;;;18.27;48.99;100991.91;4998799;28;2033;-48
2022/09/25 12:17:05;;;;;;;;;;;;;;;17.60;49.39;100999.41;5016130;28;1231;-47
2022/09/25 12:19:37;;;;;;;;;;;;;;;17.35;48.80;100980.97;5016545;28;1222;-48
2022/09/25 12:22:37;;;;;;;;;;;;;;;17.23;48.01;100978.50;5015405;28;1136;-45
2022/09/25 12:25:05;;;;;;;;;;;;;;;17.26;51.18;100975.19;4955454;29;1468;-48
2022/09/25 12:27:33;;;;;;;;;;;;;;;15.52;54.70;100975.97;4996593;28;1089;-45
2022/09/25 12:30:23;;;;;;;;;;;;;;;16.68;50.75;100987.13;5016081;28;1235;-49
2022/09/25 12:32:58;;;;;;;;;;;;;;;17.32;50.31;100978.75;5003890;28;1532;-49
2022/09/25 12:35:29;;;;;;;;;;;;;;;17.07;49.16;100985.91;5015671;28;1968;-47
2022/09/25 12:37:55;;;;;;;;;;;;;;;17.78;49.49;100976.84;5013975;28;1322;-49
2022/09/25 12:40:42;;;;;;;;;;;;;;;17.58;49.90;100969.41;5016016;28;1140;-44
2022/09/25 12:43:35;;;;;;;;;;;;;;;17.25;48.94;100970.78;5016067;28;1248;-45
2022/09/25 12:46:00;;;;;;;;;;;;;;;18.15;49.31;100974.06;4976000;28;1265;-47
2022/09/25 12:48:29;;;;;;;;;;;;;;;17.50;49.67;100971.91;5015786;28;1136;-48
2022/09/25 12:51:03;;;;;;;;;;;;;;;17.28;48.91;100962.00;5015754;28;1151;-47
2022/09/25 12:53:38;;;;;;;;;;;;;;;17.17;48.15;100954.88;5015827;28;1902;-46
2022/09/25 12:56:12;;;;;;;;;;;;;;;17.13;47.38;100959.25;4998025;28;1136;-44
2022/09/25 12:58:46;;;;;;;;;;;;;;;18.08;48.53;100957.84;5015307;28;959;-49
2022/09/25 13:01:14;;;;;;;;;;;;;;;17.32;49.13;100957.63;4998286;28;1140;-46
2022/09/25 13:03:42;;;;;;;;;;;;;;;17.19;48.26;100950.72;4998258;28;1160;-48
2022/09/25 13:06:09;;;;;;;;;;;;;;;18.00;48.63;100947.41;4998685;28;1148;-45
2022/09/25 13:08:47;;;;;;;;;;;;;;;17.43;48.83;100941.94;5015928;28;1167;-46
2022/09/25 13:11:37;;;;;;;;;;;;;;;17.20;48.18;100957.06;5015077;28;1483;-46
2022/09/25 13:14:02;;;;;;;;;;;;;;;17.17;48.15;100957.59;5007063;28;1914;-48
2022/09/25 13:16:27;;;;;;;;;;;;;;;17.99;49.08;100951.25;5002046;28;1188;-48
2022/09/25 13:19:10;;;;;;;;;;;;;;;14.85;56.26;100950.69;5018795;28;1156;-50
2022/09/25 13:21:36;;;;;;;;;;;;;;;17.99;50.49;100954.00;5018610;28;1232;-45